createdAt,value
2018-08-06T00:00:28.255Z,100509.17
2018-08-06T00:02:56.863Z,100507.80
2018-08-06T00:05:25.409Z,100499.22
2018-08-06T00:07:53.890Z,100503.91
2018-08-06T00:10:24.046Z,100503.59
2018-08-06T00:12:52.641Z,100502.23
2018-08-06T00:15:21.243Z,100498.41
2018-08-06T00:17:49.739Z,100496.11
2018-08-06T00:20:18.314Z,100502.99
2018-08-06T00:22:46.710Z,100500.75
2018-08-06T00:25:16.123Z,100494.52
2018-08-06T00:27:44.890Z,100495.56
2018-08-06T00:30:14.711Z,100496.80
2018-08-06T00:32:44.503Z,100493.42
2018-08-06T00:35:13.487Z,100498.20
2018-08-06T00:37:41.895Z,100492.96
2018-08-06T00:40:14.390Z,100488.30
2018-08-06T00:42:43.595Z,100483.96
2018-08-06T00:45:15.290Z,100495.11
2018-08-06T00:47:44.040Z,100490.92
2018-08-06T00:50:12.903Z,100491.13
2018-08-06T00:52:41.438Z,100482.52
2018-08-06T00:55:12.219Z,100474.56
2018-08-06T00:57:40.904Z,100481.44
2018-08-06T01:00:12.244Z,100475.13
2018-08-06T01:02:40.867Z,100479.02
2018-08-06T01:05:10.959Z,100483.01
2018-08-06T01:07:40.071Z,100473.70
2018-08-06T01:10:10.426Z,100478.20
2018-08-06T01:12:40.024Z,100462.77
2018-08-06T01:15:09.772Z,100472.63
2018-08-06T01:17:38.191Z,100463.04
2018-08-06T01:20:08.595Z,100462.45
2018-08-06T01:22:37.008Z,100456.85
2018-08-06T01:25:05.986Z,100456.39
2018-08-06T01:27:35.235Z,100455.83
2018-08-06T01:30:04.211Z,100456.89
2018-08-06T01:32:32.624Z,100457.05
2018-08-06T01:35:01.343Z,100456.56
2018-08-06T01:37:29.851Z,100450.14
2018-08-06T01:39:58.234Z,100457.15
2018-08-06T01:42:27.015Z,100456.57
2018-08-06T01:44:55.490Z,100457.17
2018-08-06T01:47:23.867Z,100454.86
2018-08-06T01:49:52.355Z,100455.70
2018-08-06T01:52:20.751Z,100453.31
2018-08-06T01:54:49.199Z,100453.31
2018-08-06T01:57:17.732Z,100450.36
2018-08-06T01:59:46.311Z,100455.69
2018-08-06T02:02:14.903Z,100452.08
2018-08-06T02:04:43.339Z,100449.70
2018-08-06T02:07:11.828Z,100451.70
2018-08-06T02:09:40.258Z,100451.88
2018-08-06T02:12:09.058Z,100443.09
2018-08-06T02:14:37.715Z,100440.63
2018-08-06T02:17:06.291Z,100447.65
2018-08-06T02:19:34.822Z,100438.25
2018-08-06T02:22:03.375Z,100444.53
2018-08-06T02:24:31.905Z,100432.41
2018-08-06T02:27:00.397Z,100437.31
2018-08-06T02:29:28.971Z,100429.93
2018-08-06T02:31:57.599Z,100429.87
2018-08-06T02:34:26.075Z,100429.64
2018-08-06T02:36:54.543Z,100430.16
2018-08-06T02:39:23.035Z,100429.41
2018-08-06T02:41:51.699Z,100431.62
2018-08-06T02:44:20.155Z,100431.55
2018-08-06T02:46:48.655Z,100431.43
2018-08-06T02:49:17.151Z,100429.86
2018-08-06T02:51:45.630Z,100427.59
2018-08-06T02:54:14.101Z,100423.63
2018-08-06T02:56:42.890Z,100429.61
2018-08-06T02:59:11.379Z,100426.52
2018-08-06T03:01:39.875Z,100427.42
2018-08-06T03:04:08.854Z,100420.16
2018-08-06T03:06:37.391Z,100424.70
2018-08-06T03:09:09.239Z,100417.45
2018-08-06T03:11:37.890Z,100418.42
2018-08-06T03:14:06.451Z,100416.63
2018-08-06T03:16:35.116Z,100421.95
2018-08-06T03:19:03.615Z,100418.67
2018-08-06T03:21:32.129Z,100417.20
2018-08-06T03:24:00.992Z,100414.13
2018-08-06T03:26:29.543Z,100413.64
2018-08-06T03:28:58.040Z,100417.67
2018-08-06T03:31:26.746Z,100410.98
2018-08-06T03:33:55.359Z,100414.03
2018-08-06T03:36:23.855Z,100408.66
2018-08-06T03:38:52.590Z,100415.73
2018-08-06T03:41:21.028Z,100408.18
2018-08-06T03:43:49.496Z,100406.80
2018-08-06T03:46:18.179Z,100400.17
2018-08-06T03:48:46.691Z,100400.38
2018-08-06T03:51:15.139Z,100402.70
2018-08-06T03:53:43.967Z,100403.46
2018-08-06T03:56:12.398Z,100405.56
2018-08-06T03:58:40.799Z,100397.78
2018-08-06T04:01:09.452Z,100401.23
2018-08-06T04:03:37.966Z,100406.93
2018-08-06T04:06:06.447Z,100408.57
2018-08-06T04:08:34.972Z,100403.74
2018-08-06T04:11:03.437Z,100404.03
2018-08-06T04:13:31.994Z,100409.40
2018-08-06T04:16:00.526Z,100406.91
2018-08-06T04:18:28.982Z,100402.61
2018-08-06T04:20:57.367Z,100412.02
2018-08-06T04:23:25.895Z,100407.27
2018-08-06T04:25:54.555Z,100411.50
2018-08-06T04:28:22.995Z,100415.42
2018-08-06T04:30:51.572Z,100418.75
2018-08-06T04:33:19.999Z,100422.95
2018-08-06T04:35:48.550Z,100421.73
2018-08-06T04:38:17.163Z,100429.61
2018-08-06T04:40:45.612Z,100427.03
2018-08-06T04:43:13.991Z,100422.23
2018-08-06T04:45:42.555Z,100423.69
2018-08-06T04:48:10.943Z,100424.70
2018-08-06T04:50:39.358Z,100429.25
2018-08-06T04:53:07.932Z,100426.25
2018-08-06T04:55:36.451Z,100429.66
2018-08-06T04:58:04.979Z,100436.61
2018-08-06T05:00:33.919Z,100436.06
2018-08-06T05:03:02.367Z,100438.52
2018-08-06T05:05:30.883Z,100436.14
2018-08-06T05:07:59.762Z,100437.71
2018-08-06T05:10:28.560Z,100440.53
2018-08-06T05:12:57.057Z,100442.82
2018-08-06T05:15:25.523Z,100445.59
2018-08-06T05:17:54.073Z,100452.16
2018-08-06T05:20:22.540Z,100444.73
2018-08-06T05:22:51.183Z,100444.72
2018-08-06T05:25:19.623Z,100441.05
2018-08-06T05:27:48.083Z,100438.95
2018-08-06T05:30:16.654Z,100440.05
2018-08-06T05:32:45.088Z,100444.23
2018-08-06T05:35:13.637Z,100442.73
2018-08-06T05:37:42.455Z,100441.90
2018-08-06T05:40:11.019Z,100441.80
2018-08-06T05:42:39.459Z,100436.63
2018-08-06T05:45:09.264Z,100435.28
2018-08-06T05:47:38.060Z,100437.50
2018-08-06T05:50:09.055Z,100444.39
2018-08-06T05:52:37.613Z,100447.25
2018-08-06T05:55:07.206Z,100445.74
2018-08-06T05:57:35.723Z,100446.35
2018-08-06T06:00:05.763Z,100450.08
2018-08-06T06:02:34.339Z,100443.38
2018-08-06T06:05:03.054Z,100445.91
2018-08-06T06:07:31.496Z,100447.91
2018-08-06T06:10:00.139Z,100440.03
2018-08-06T06:12:28.955Z,100443.42
2018-08-06T06:14:57.359Z,100441.21
2018-08-06T06:17:25.844Z,100440.03
2018-08-06T06:19:54.356Z,100440.37
2018-08-06T06:22:22.878Z,100438.19
2018-08-06T06:24:51.328Z,100436.67
2018-08-06T06:27:20.171Z,100436.39
2018-08-06T06:29:48.581Z,100430.36
2018-08-06T06:32:17.047Z,100427.72
2018-08-06T06:34:45.761Z,100425.36
2018-08-06T06:37:14.171Z,100426.28
2018-08-06T06:39:42.613Z,100418.55
2018-08-06T06:42:11.286Z,100420.19
2018-08-06T06:44:39.847Z,100421.47
2018-08-06T06:47:08.295Z,100417.91
2018-08-06T06:49:36.730Z,100423.01
2018-08-06T06:52:05.242Z,100413.62
2018-08-06T06:54:33.822Z,100411.22
2018-08-06T06:57:02.579Z,100411.45
2018-08-06T06:59:31.021Z,100411.39
2018-08-06T07:01:59.632Z,100410.23
2018-08-06T07:04:28.473Z,100411.83
2018-08-06T07:06:56.938Z,100410.72
2018-08-06T07:09:25.340Z,100409.43
2018-08-06T07:11:53.943Z,100402.55
2018-08-06T07:14:22.491Z,100402.70
2018-08-06T07:16:50.997Z,100401.80
2018-08-06T07:19:19.470Z,100406.16
2018-08-06T07:21:47.887Z,100396.36
2018-08-06T07:24:16.539Z,100399.19
2018-08-06T07:26:45.514Z,100392.24
2018-08-06T07:29:13.922Z,100393.26
2018-08-06T07:31:42.471Z,100389.22
2018-08-06T07:34:11.082Z,100381.17
2018-08-06T07:36:39.772Z,100387.23
2018-08-06T07:39:10.300Z,100385.52
2018-08-06T07:41:38.826Z,100381.37
2018-08-06T07:44:07.387Z,100374.11
2018-08-06T07:46:36.643Z,100367.19
2018-08-06T07:49:05.383Z,100377.33
2018-08-06T07:51:33.895Z,100373.37
2018-08-06T07:54:02.435Z,100366.95
2018-08-06T07:56:30.915Z,100365.23
2018-08-06T07:58:59.403Z,100361.14
2018-08-06T08:01:27.859Z,100356.36
2018-08-06T08:03:56.327Z,100365.91
2018-08-06T08:06:24.867Z,100360.00
2018-08-06T08:08:53.816Z,100355.75
2018-08-06T08:11:22.220Z,100352.56
2018-08-06T08:13:50.663Z,100346.93
2018-08-06T08:16:19.155Z,100346.07
2018-08-06T08:18:47.683Z,100349.27
2018-08-06T08:21:16.131Z,100346.56
2018-08-06T08:23:44.647Z,100349.55
2018-08-06T08:26:13.165Z,100341.80
2018-08-06T08:28:41.560Z,100346.56
2018-08-06T08:31:10.038Z,100338.23
2018-08-06T08:33:38.498Z,100343.16
2018-08-06T08:36:07.311Z,100339.50
2018-08-06T08:38:36.040Z,100341.63
2018-08-06T08:41:04.595Z,100337.24
2018-08-06T08:43:33.082Z,100331.00
2018-08-06T08:46:01.791Z,100331.02
2018-08-06T08:48:30.180Z,100321.61
2018-08-06T08:50:58.675Z,100321.52
2018-08-06T08:53:27.107Z,100316.08
2018-08-06T08:55:55.647Z,100310.30
2018-08-06T08:58:24.176Z,100313.04
2018-08-06T09:00:52.849Z,100308.78
2018-08-06T09:03:21.343Z,100306.41
2018-08-06T09:05:49.960Z,100299.95
2018-08-06T09:08:18.903Z,100303.94
2018-08-06T09:10:47.350Z,100296.26
2018-08-06T09:13:15.789Z,100293.89
2018-08-06T09:15:44.392Z,100292.48
2018-08-06T09:18:12.929Z,100299.91
2018-08-06T09:20:41.394Z,100300.80
2018-08-06T09:23:09.943Z,100293.22
2018-08-06T09:25:38.537Z,100295.96
2018-08-06T09:28:07.131Z,100289.09
2018-08-06T09:30:35.847Z,100281.66
2018-08-06T09:33:04.311Z,100288.11
2018-08-06T09:35:32.771Z,100293.20
2018-08-06T09:38:01.439Z,100284.32
2018-08-06T09:40:30.031Z,100276.90
2018-08-06T09:42:58.500Z,100279.64
2018-08-06T09:45:27.221Z,100282.08
2018-08-06T09:47:55.670Z,100280.36
2018-08-06T09:50:24.143Z,100269.41
2018-08-06T09:52:53.510Z,100263.84
2018-08-06T09:55:24.722Z,100259.50
2018-08-06T09:57:53.774Z,100253.87
2018-08-06T10:00:28.204Z,100255.75
2018-08-06T10:03:00.883Z,100245.11
2018-08-06T10:05:29.693Z,100246.66
2018-08-06T10:07:58.177Z,100240.48
2018-08-06T10:10:26.907Z,100229.87
2018-08-06T10:12:55.335Z,100229.18
2018-08-06T10:15:23.771Z,100231.38
2018-08-06T10:17:53.619Z,100229.02
2018-08-06T10:20:23.424Z,100224.61
2018-08-06T10:22:51.878Z,100224.61
2018-08-06T10:25:20.375Z,100215.99
2018-08-06T10:27:49.112Z,100219.58
2018-08-06T10:30:18.985Z,100219.61
2018-08-06T10:32:47.547Z,100210.67
2018-08-06T10:35:17.559Z,100203.31
2018-08-06T10:37:46.047Z,100198.82
2018-08-06T10:40:20.233Z,100205.05
2018-08-06T10:42:48.611Z,100196.44
2018-08-06T10:45:18.151Z,100189.08
2018-08-06T10:47:47.591Z,100186.28
2018-08-06T10:50:16.075Z,100187.67
2018-08-06T10:52:44.583Z,100178.11
2018-08-06T10:55:13.531Z,100171.80
2018-08-06T10:57:43.410Z,100171.03
2018-08-06T11:00:16.045Z,100163.47
2018-08-06T11:02:44.903Z,100164.06
2018-08-06T11:05:14.483Z,100162.06
2018-08-06T11:07:43.327Z,100152.41
2018-08-06T11:10:13.775Z,100154.34
2018-08-06T11:12:42.297Z,100146.51
2018-08-06T11:15:14.440Z,100141.97
2018-08-06T11:17:43.012Z,100140.55
2018-08-06T11:20:12.773Z,100138.03
2018-08-06T11:22:41.390Z,100133.97
2018-08-06T11:25:11.447Z,100134.46
2018-08-06T11:27:39.970Z,100129.86
2018-08-06T11:30:10.989Z,100131.42
2018-08-06T11:32:39.399Z,100128.98
2018-08-06T11:35:08.749Z,100118.90
2018-08-06T11:37:37.389Z,100123.31
2018-08-06T11:40:07.072Z,100122.77
2018-08-06T11:42:35.739Z,100116.62
2018-08-06T11:45:04.489Z,100114.81
2018-08-06T11:47:33.139Z,100099.36
2018-08-06T11:50:01.545Z,100106.79
2018-08-06T11:52:30.303Z,100100.93
2018-08-06T11:54:58.795Z,100101.28
2018-08-06T11:57:27.271Z,100091.31
2018-08-06T11:59:55.995Z,100092.57
2018-08-06T12:02:24.596Z,100081.84
2018-08-06T12:04:53.106Z,100080.45
2018-08-06T12:07:22.078Z,100082.31
2018-08-06T12:09:50.508Z,100073.68
2018-08-06T12:12:19.439Z,100065.55
2018-08-06T12:14:48.131Z,100063.58
2018-08-06T12:17:17.338Z,100055.30
2018-08-06T12:19:45.803Z,100059.36
2018-08-06T12:22:14.471Z,100058.08
2018-08-06T12:24:42.886Z,100066.52
2018-08-06T12:27:11.430Z,100061.36
2018-08-06T12:29:40.164Z,100054.10
2018-08-06T12:32:08.736Z,100051.38
2018-08-06T12:34:37.136Z,100044.05
2018-08-06T12:37:05.596Z,100048.38
2018-08-06T12:39:34.095Z,100048.78
2018-08-06T12:42:02.537Z,100040.55
2018-08-06T12:44:31.104Z,100043.09
2018-08-06T12:46:59.538Z,100034.89
2018-08-06T12:49:27.927Z,100038.72
2018-08-06T12:51:56.379Z,100032.33
2018-08-06T12:54:24.819Z,100034.81
2018-08-06T12:56:53.262Z,100031.66
2018-08-06T12:59:21.991Z,100027.64
2018-08-06T13:01:50.424Z,100020.59
2018-08-06T13:04:18.938Z,100015.05
2018-08-06T13:06:47.679Z,100016.02
2018-08-06T13:09:16.060Z,100001.00
2018-08-06T13:11:44.495Z,100006.34
2018-08-06T13:14:13.363Z,100004.59
2018-08-06T13:16:41.895Z,100009.16
2018-08-06T13:19:10.435Z,100003.84
2018-08-06T13:21:39.039Z,99998.00
2018-08-06T13:24:07.575Z,99987.34
2018-08-06T13:26:35.986Z,99993.33
2018-08-06T13:29:04.592Z,99981.11
2018-08-06T13:31:33.039Z,99982.44
2018-08-06T13:34:01.479Z,99981.41
2018-08-06T13:36:29.975Z,99979.32
2018-08-06T13:38:58.475Z,99977.42
2018-08-06T13:41:26.960Z,99967.62
2018-08-06T13:43:55.487Z,99963.83
2018-08-06T13:46:23.979Z,99960.25
2018-08-06T13:48:52.451Z,99950.81
2018-08-06T13:51:21.197Z,99958.80
2018-08-06T13:53:49.759Z,99949.84
2018-08-06T13:56:18.167Z,99941.84
2018-08-06T13:58:46.637Z,99939.64
2018-08-06T14:01:15.210Z,99941.70
2018-08-06T14:03:43.686Z,99940.60
2018-08-06T14:06:13.379Z,99936.59
2018-08-06T14:08:41.852Z,99933.54
2018-08-06T14:11:10.339Z,99927.55
2018-08-06T14:13:38.743Z,99927.63
2018-08-06T14:16:07.560Z,99928.92
2018-08-06T14:18:36.035Z,99924.03
2018-08-06T14:21:04.739Z,99924.45
2018-08-06T14:23:33.177Z,99915.84
2018-08-06T14:26:01.726Z,99915.30
2018-08-06T14:28:30.211Z,99914.99
2018-08-06T14:30:58.655Z,99909.68
2018-08-06T14:33:27.147Z,99907.55
2018-08-06T14:35:55.682Z,99905.75
2018-08-06T14:38:24.315Z,99897.67
2018-08-06T14:40:52.715Z,99891.53
2018-08-06T14:43:21.287Z,99887.88
2018-08-06T14:45:49.767Z,99879.81
2018-08-06T14:48:18.281Z,99880.29
2018-08-06T14:50:46.901Z,99874.25
2018-08-06T14:53:15.363Z,99874.38
2018-08-06T14:55:43.843Z,99870.77
2018-08-06T14:58:12.343Z,99872.14
2018-08-06T15:00:40.803Z,99868.72
2018-08-06T15:03:09.295Z,99867.00
2018-08-06T15:05:37.730Z,99870.58
2018-08-06T15:08:06.352Z,99858.39
2018-08-06T15:10:34.894Z,99862.50
2018-08-06T15:13:03.631Z,99861.16
2018-08-06T15:15:32.109Z,99860.40
2018-08-06T15:18:00.596Z,99859.36
2018-08-06T15:20:29.247Z,99856.54
2018-08-06T15:22:57.644Z,99845.47
2018-08-06T15:25:26.210Z,99855.02
2018-08-06T15:27:54.901Z,99845.09
2018-08-06T15:30:23.371Z,99836.29
2018-08-06T15:32:51.783Z,99837.23
2018-08-06T15:35:20.466Z,99829.39
2018-08-06T15:37:48.944Z,99831.85
2018-08-06T15:40:19.253Z,99830.03
2018-08-06T15:42:47.902Z,99825.86
2018-08-06T15:45:16.406Z,99825.04
2018-08-06T15:47:45.815Z,99822.48
2018-08-06T15:50:18.534Z,99821.99
2018-08-06T15:52:47.196Z,99820.61
2018-08-06T15:55:15.711Z,99822.02
2018-08-06T15:57:44.444Z,99816.27
2018-08-06T16:00:15.739Z,99817.69
2018-08-06T16:02:44.692Z,99817.91
2018-08-06T16:05:13.527Z,99808.24
2018-08-06T16:07:41.949Z,99813.88
2018-08-06T16:10:11.687Z,99803.97
2018-08-06T16:12:40.175Z,99802.14
2018-08-06T16:15:10.586Z,99792.48
2018-08-06T16:17:40.168Z,99802.46
2018-08-06T16:20:10.899Z,99797.62
2018-08-06T16:22:39.708Z,99792.41
2018-08-06T16:25:09.096Z,99792.38
2018-08-06T16:27:37.531Z,99788.98
2018-08-06T16:30:13.787Z,99786.12
2018-08-06T16:32:42.604Z,99782.75
2018-08-06T16:35:11.026Z,99782.33
2018-08-06T16:37:39.911Z,99784.23
2018-08-06T16:40:09.391Z,99778.72
2018-08-06T16:42:37.802Z,99778.36
2018-08-06T16:45:07.515Z,99772.63
2018-08-06T16:47:36.485Z,99778.80
2018-08-06T16:50:05.671Z,99776.11
2018-08-06T16:52:34.243Z,99773.45
2018-08-06T16:55:02.691Z,99768.69
2018-08-06T16:57:31.271Z,99766.35
2018-08-06T17:00:00.123Z,99765.06
2018-08-06T17:02:28.911Z,99763.20
2018-08-06T17:04:58.093Z,99758.30
2018-08-06T17:07:26.631Z,99752.31
2018-08-06T17:09:55.311Z,99757.70
2018-08-06T17:12:23.688Z,99757.37
2018-08-06T17:14:53.364Z,99759.04
2018-08-06T17:17:21.900Z,99757.32
2018-08-06T17:19:50.299Z,99756.85
2018-08-06T17:22:18.784Z,99755.67
2018-08-06T17:24:47.310Z,99751.55
2018-08-06T17:27:15.740Z,99753.02
2018-08-06T17:29:44.215Z,99749.44
2018-08-06T17:32:12.902Z,99757.39
2018-08-06T17:34:41.414Z,99756.61
2018-08-06T17:37:10.219Z,99749.79
2018-08-06T17:39:38.643Z,99751.81
2018-08-06T17:42:07.063Z,99752.02
2018-08-06T17:44:35.543Z,99760.63
2018-08-06T17:47:04.043Z,99753.66
2018-08-06T17:49:32.500Z,99755.58
2018-08-06T17:52:05.472Z,99749.23
2018-08-06T17:54:33.928Z,99756.41
2018-08-06T17:57:02.383Z,99757.73
2018-08-06T17:59:31.313Z,99750.78
2018-08-06T18:01:59.723Z,99753.12
2018-08-06T18:04:28.187Z,99759.80
2018-08-06T18:06:56.711Z,99759.71
2018-08-06T18:09:25.187Z,99759.69
2018-08-06T18:11:53.912Z,99764.44
2018-08-06T18:14:22.544Z,99760.86
2018-08-06T18:16:51.112Z,99759.10
2018-08-06T18:19:19.543Z,99762.80
2018-08-06T18:21:48.219Z,99759.27
2018-08-06T18:24:16.837Z,99758.86
2018-08-06T18:26:45.243Z,99767.26
2018-08-06T18:29:14.015Z,99764.51
2018-08-06T18:31:43.082Z,99765.28
2018-08-06T18:34:11.473Z,99762.59
2018-08-06T18:36:39.997Z,99771.73
2018-08-06T18:39:10.410Z,99773.38
2018-08-06T18:41:38.884Z,99770.86
2018-08-06T18:44:07.642Z,99769.23
2018-08-06T18:46:36.093Z,99770.20
2018-08-06T18:49:04.811Z,99770.19
2018-08-06T18:51:33.296Z,99767.86
2018-08-06T18:54:01.760Z,99770.42
2018-08-06T18:56:30.395Z,99775.25
2018-08-06T18:59:00.359Z,99774.02
2018-08-06T19:01:28.883Z,99776.47
2018-08-06T19:03:57.476Z,99777.83
2018-08-06T19:06:26.275Z,99781.75
2018-08-06T19:08:59.890Z,99779.90
2018-08-06T19:11:28.999Z,99781.12
2018-08-06T19:14:03.280Z,99783.79
2018-08-06T19:16:32.020Z,99782.79
2018-08-06T19:19:05.992Z,99784.25
2018-08-06T19:21:34.740Z,99788.20
2018-08-06T19:24:08.396Z,99791.86
2018-08-06T19:26:37.163Z,99794.63
2018-08-06T19:29:05.777Z,99793.66
2018-08-06T19:31:34.733Z,99798.08
2018-08-06T19:34:03.910Z,99797.97
2018-08-06T19:36:37.880Z,99803.41
2018-08-06T19:39:09.343Z,99796.06
2018-08-06T19:41:38.649Z,99805.49
2018-08-06T19:44:08.397Z,99796.39
2018-08-06T19:46:37.138Z,99799.79
2018-08-06T19:49:11.154Z,99801.52
2018-08-06T19:51:39.916Z,99797.95
2018-08-06T19:54:08.623Z,99796.07
2018-08-06T19:56:37.145Z,99806.62
2018-08-06T19:59:06.402Z,99801.95
2018-08-06T20:01:34.967Z,99798.88
2018-08-06T20:04:03.983Z,99801.75
2018-08-06T20:06:33.252Z,99808.75
2018-08-06T20:09:02.107Z,99810.03
2018-08-06T20:11:30.803Z,99813.01
2018-08-06T20:13:59.364Z,99810.80
2018-08-06T20:16:27.960Z,99815.38
2018-08-06T20:18:56.482Z,99813.07
2018-08-06T20:21:25.184Z,99811.51
2018-08-06T20:23:53.632Z,99818.95
2018-08-06T20:26:22.187Z,99813.98
2018-08-06T20:28:51.020Z,99812.17
2018-08-06T20:31:19.601Z,99814.02
2018-08-06T20:33:48.119Z,99814.45
2018-08-06T20:36:17.099Z,99814.91
2018-08-06T20:38:45.559Z,99809.86
2018-08-06T20:41:19.679Z,99808.36
2018-08-06T20:43:48.132Z,99811.58
2018-08-06T20:46:19.564Z,99811.66
2018-08-06T20:48:48.377Z,99812.86
2018-08-06T20:51:16.902Z,99819.90
2018-08-06T20:53:45.392Z,99818.37
2018-08-06T20:56:13.883Z,99817.21
2018-08-06T20:58:42.347Z,99818.52
2018-08-06T21:01:10.752Z,99822.64
2018-08-06T21:03:39.408Z,99824.15
2018-08-06T21:06:07.891Z,99820.53
2018-08-06T21:08:36.347Z,99826.70
2018-08-06T21:11:05.130Z,99829.24
2018-08-06T21:13:33.499Z,99819.61
2018-08-06T21:16:01.949Z,99825.14
2018-08-06T21:18:30.459Z,99831.88
2018-08-06T21:20:58.956Z,99839.41
2018-08-06T21:23:27.570Z,99833.46
2018-08-06T21:25:56.187Z,99835.84
2018-08-06T21:28:24.615Z,99829.66
2018-08-06T21:30:53.090Z,99826.54
2018-08-06T21:33:21.548Z,99831.08
2018-08-06T21:35:49.991Z,99829.52
2018-08-06T21:38:18.419Z,99830.25
2018-08-06T21:40:47.312Z,99830.88
2018-08-06T21:43:15.791Z,99840.48
2018-08-06T21:45:44.345Z,99841.27
2018-08-06T21:48:13.167Z,99844.95
2018-08-06T21:50:41.718Z,99841.37
2018-08-06T21:53:10.228Z,99830.05
2018-08-06T21:55:38.991Z,99839.92
2018-08-06T21:58:07.375Z,99836.92
2018-08-06T22:00:40.305Z,99841.30
2018-08-06T22:03:14.387Z,99844.30
2018-08-06T22:05:43.054Z,99845.30
2018-08-06T22:08:11.715Z,99841.83
2018-08-06T22:10:40.363Z,99851.89
2018-08-06T22:13:09.759Z,99850.77
2018-08-06T22:15:38.419Z,99849.64
2018-08-06T22:18:08.160Z,99852.41
2018-08-06T22:20:36.611Z,99849.56
2018-08-06T22:23:05.270Z,99838.80
2018-08-06T22:25:33.700Z,99844.21
2018-08-06T22:28:02.114Z,99846.84
2018-08-06T22:30:30.615Z,99842.34
2018-08-06T22:32:59.062Z,99840.77
2018-08-06T22:35:27.766Z,99842.86
2018-08-06T22:37:56.223Z,99833.16
2018-08-06T22:40:24.710Z,99829.56
2018-08-06T22:42:53.202Z,99838.05
2018-08-06T22:45:21.667Z,99833.30
2018-08-06T22:47:50.175Z,99830.27
2018-08-06T22:50:18.835Z,99834.25
2018-08-06T22:52:47.371Z,99825.91
2018-08-06T22:55:15.863Z,99822.52
2018-08-06T22:57:44.336Z,99824.20
2018-08-06T23:00:15.719Z,99831.09
2018-08-06T23:02:44.651Z,99820.94
2018-08-06T23:05:14.822Z,99828.48
2018-08-06T23:07:43.355Z,99823.06
2018-08-06T23:10:13.541Z,99826.45
2018-08-06T23:12:42.069Z,99825.91
2018-08-06T23:15:13.628Z,99829.53
2018-08-06T23:17:42.362Z,99826.07
2018-08-06T23:20:11.072Z,99826.77
2018-08-06T23:22:39.991Z,99826.90
2018-08-06T23:25:08.660Z,99823.69
2018-08-06T23:27:38.072Z,99819.91
2018-08-06T23:30:10.180Z,99813.78
2018-08-06T23:32:38.843Z,99816.21
2018-08-06T23:35:08.735Z,99822.27
2018-08-06T23:37:37.299Z,99818.67
2018-08-06T23:40:06.683Z,99817.80
2018-08-06T23:42:35.368Z,99815.11
2018-08-06T23:45:04.634Z,99819.64
2018-08-06T23:47:33.159Z,99821.72
2018-08-06T23:50:01.677Z,99820.73
2018-08-06T23:52:30.164Z,99816.55
2018-08-06T23:54:58.741Z,99815.43
2018-08-06T23:57:28.084Z,99805.23
2018-08-06T23:59:56.820Z,99810.71
